sensor_id;sensor_type;location;lat;lon;timestamp;P1;durP1;ratioP1;P2;durP2;ratioP2
56242;SDS011;42155;53.096;23.226;2023-03-19T00:00:22;29.45;;;15.70;;
56242;SDS011;42155;53.096;23.226;2023-03-19T00:02:22;31.08;;;15.05;;
56242;SDS011;42155;53.096;23.226;2023-03-19T00:04:23;27.85;;;14.35;;
56242;SDS011;42155;53.096;23.226;2023-03-19T00:06:25;27.90;;;14.75;;
56242;SDS011;42155;53.096;23.226;2023-03-19T00:08:25;26.95;;;13.85;;
56242;SDS011;42155;53.096;23.226;2023-03-19T00:10:26;27.10;;;14.48;;
56242;SDS011;42155;53.096;23.226;2023-03-19T00:12:26;31.20;;;15.18;;
56242;SDS011;42155;53.096;23.226;2023-03-19T00:14:27;24.85;;;14.25;;
56242;SDS011;42155;53.096;23.226;2023-03-19T00:16:27;28.60;;;14.93;;
56242;SDS011;42155;53.096;23.226;2023-03-19T00:18:27;26.25;;;14.63;;
56242;SDS011;42155;53.096;23.226;2023-03-19T00:20:28;27.42;;;15.25;;
56242;SDS011;42155;53.096;23.226;2023-03-19T00:22:28;30.63;;;15.32;;
56242;SDS011;42155;53.096;23.226;2023-03-19T00:24:28;30.92;;;15.43;;
56242;SDS011;42155;53.096;23.226;2023-03-19T00:26:29;31.48;;;16.65;;
56242;SDS011;42155;53.096;23.226;2023-03-19T00:28:30;28.33;;;15.15;;
56242;SDS011;42155;53.096;23.226;2023-03-19T00:30:31;29.42;;;14.98;;
56242;SDS011;42155;53.096;23.226;2023-03-19T00:32:32;27.45;;;14.82;;
56242;SDS011;42155;53.096;23.226;2023-03-19T00:34:32;28.45;;;15.38;;
56242;SDS011;42155;53.096;23.226;2023-03-19T00:36:32;29.13;;;15.00;;
56242;SDS011;42155;53.096;23.226;2023-03-19T00:38:33;26.13;;;14.88;;
56242;SDS011;42155;53.096;23.226;2023-03-19T00:40:33;30.40;;;15.95;;
56242;SDS011;42155;53.096;23.226;2023-03-19T00:42:33;27.08;;;15.32;;
56242;SDS011;42155;53.096;23.226;2023-03-19T00:44:34;29.42;;;15.68;;
56242;SDS011;42155;53.096;23.226;2023-03-19T00:46:34;29.58;;;15.95;;
56242;SDS011;42155;53.096;23.226;2023-03-19T00:48:34;32.00;;;15.35;;
56242;SDS011;42155;53.096;23.226;2023-03-19T00:50:35;31.30;;;16.00;;
56242;SDS011;42155;53.096;23.226;2023-03-19T00:52:35;28.77;;;16.10;;
56242;SDS011;42155;53.096;23.226;2023-03-19T00:54:35;30.58;;;16.20;;
56242;SDS011;42155;53.096;23.226;2023-03-19T00:56:36;31.85;;;16.42;;
56242;SDS011;42155;53.096;23.226;2023-03-19T00:58:36;28.08;;;15.35;;
56242;SDS011;42155;53.096;23.226;2023-03-19T01:00:37;29.83;;;15.52;;
56242;SDS011;42155;53.096;23.226;2023-03-19T01:02:38;28.88;;;15.18;;
56242;SDS011;42155;53.096;23.226;2023-03-19T01:04:38;27.13;;;15.07;;
56242;SDS011;42155;53.096;23.226;2023-03-19T01:06:38;32.05;;;15.20;;
56242;SDS011;42155;53.096;23.226;2023-03-19T01:08:39;29.63;;;15.18;;
56242;SDS011;42155;53.096;23.226;2023-03-19T01:10:39;31.75;;;15.85;;
56242;SDS011;42155;53.096;23.226;2023-03-19T01:12:39;31.13;;;16.23;;
56242;SDS011;42155;53.096;23.226;2023-03-19T01:14:40;33.83;;;16.40;;
56242;SDS011;42155;53.096;23.226;2023-03-19T01:16:40;32.70;;;16.17;;
56242;SDS011;42155;53.096;23.226;2023-03-19T01:18:40;30.30;;;15.45;;
56242;SDS011;42155;53.096;23.226;2023-03-19T01:20:41;33.58;;;16.17;;
56242;SDS011;42155;53.096;23.226;2023-03-19T01:22:41;29.92;;;16.05;;
56242;SDS011;42155;53.096;23.226;2023-03-19T01:24:41;29.23;;;16.02;;
56242;SDS011;42155;53.096;23.226;2023-03-19T01:26:42;30.35;;;16.00;;
56242;SDS011;42155;53.096;23.226;2023-03-19T01:28:42;29.40;;;15.70;;
56242;SDS011;42155;53.096;23.226;2023-03-19T01:30:43;33.20;;;16.70;;
56242;SDS011;42155;53.096;23.226;2023-03-19T01:32:43;32.17;;;16.08;;
56242;SDS011;42155;53.096;23.226;2023-03-19T01:34:43;29.95;;;15.20;;
56242;SDS011;42155;53.096;23.226;2023-03-19T01:36:44;29.98;;;16.10;;
56242;SDS011;42155;53.096;23.226;2023-03-19T01:38:44;34.67;;;16.80;;
56242;SDS011;42155;53.096;23.226;2023-03-19T01:40:48;35.00;;;17.17;;
56242;SDS011;42155;53.096;23.226;2023-03-19T01:44:52;30.95;;;16.05;;
56242;SDS011;42155;53.096;23.226;2023-03-19T01:46:53;31.15;;;16.70;;
56242;SDS011;42155;53.096;23.226;2023-03-19T01:48:55;33.75;;;17.48;;
56242;SDS011;42155;53.096;23.226;2023-03-19T01:50:58;34.55;;;16.65;;
56242;SDS011;42155;53.096;23.226;2023-03-19T01:53:00;31.63;;;16.92;;
56242;SDS011;42155;53.096;23.226;2023-03-19T01:55:02;31.17;;;16.10;;
56242;SDS011;42155;53.096;23.226;2023-03-19T01:57:05;32.63;;;16.05;;
56242;SDS011;42155;53.096;23.226;2023-03-19T01:59:09;33.10;;;16.58;;
56242;SDS011;42155;53.096;23.226;2023-03-19T02:01:16;31.98;;;16.13;;
56242;SDS011;42155;53.096;23.226;2023-03-19T02:03:17;34.90;;;17.17;;
56242;SDS011;42155;53.096;23.226;2023-03-19T02:05:17;35.67;;;17.30;;
56242;SDS011;42155;53.096;23.226;2023-03-19T02:07:19;32.83;;;16.85;;
56242;SDS011;42155;53.096;23.226;2023-03-19T02:09:20;37.72;;;18.05;;
56242;SDS011;42155;53.096;23.226;2023-03-19T02:11:23;34.78;;;16.50;;
56242;SDS011;42155;53.096;23.226;2023-03-19T02:13:25;34.50;;;16.15;;
56242;SDS011;42155;53.096;23.226;2023-03-19T02:15:25;32.67;;;16.33;;
56242;SDS011;42155;53.096;23.226;2023-03-19T02:17:26;35.85;;;17.50;;
56242;SDS011;42155;53.096;23.226;2023-03-19T02:19:34;33.50;;;17.10;;
56242;SDS011;42155;53.096;23.226;2023-03-19T02:21:47;30.85;;;16.88;;
56242;SDS011;42155;53.096;23.226;2023-03-19T02:26:51;34.28;;;17.85;;
56242;SDS011;42155;53.096;23.226;2023-03-19T02:28:25;34.05;;;17.27;;
56242;SDS011;42155;53.096;23.226;2023-03-19T02:30:28;33.25;;;17.05;;
56242;SDS011;42155;53.096;23.226;2023-03-19T02:32:31;32.50;;;16.77;;
56242;SDS011;42155;53.096;23.226;2023-03-19T02:34:32;35.00;;;17.80;;
56242;SDS011;42155;53.096;23.226;2023-03-19T02:36:40;32.75;;;17.20;;
56242;SDS011;42155;53.096;23.226;2023-03-19T02:38:43;34.75;;;18.52;;
56242;SDS011;42155;53.096;23.226;2023-03-19T02:40:50;33.55;;;17.35;;
56242;SDS011;42155;53.096;23.226;2023-03-19T02:42:54;32.97;;;17.67;;
56242;SDS011;42155;53.096;23.226;2023-03-19T02:44:54;37.90;;;19.55;;
56242;SDS011;42155;53.096;23.226;2023-03-19T02:46:55;36.65;;;19.45;;
56242;SDS011;42155;53.096;23.226;2023-03-19T02:48:55;42.00;;;20.30;;
56242;SDS011;42155;53.096;23.226;2023-03-19T02:50:55;36.00;;;18.38;;
56242;SDS011;42155;53.096;23.226;2023-03-19T02:52:56;35.60;;;18.10;;
56242;SDS011;42155;53.096;23.226;2023-03-19T02:54:56;33.15;;;17.48;;
56242;SDS011;42155;53.096;23.226;2023-03-19T02:56:56;35.20;;;18.67;;
56242;SDS011;42155;53.096;23.226;2023-03-19T02:58:57;35.22;;;18.92;;
56242;SDS011;42155;53.096;23.226;2023-03-19T03:00:57;39.38;;;19.08;;
56242;SDS011;42155;53.096;23.226;2023-03-19T03:02:57;36.85;;;17.75;;
56242;SDS011;42155;53.096;23.226;2023-03-19T03:04:58;34.13;;;17.40;;
56242;SDS011;42155;53.096;23.226;2023-03-19T03:06:58;34.80;;;18.48;;
56242;SDS011;42155;53.096;23.226;2023-03-19T03:09:00;37.95;;;18.60;;
56242;SDS011;42155;53.096;23.226;2023-03-19T03:11:00;35.90;;;17.50;;
56242;SDS011;42155;53.096;23.226;2023-03-19T03:13:01;33.28;;;18.42;;
56242;SDS011;42155;53.096;23.226;2023-03-19T03:15:01;38.78;;;19.45;;
56242;SDS011;42155;53.096;23.226;2023-03-19T03:17:02;34.45;;;18.15;;
56242;SDS011;42155;53.096;23.226;2023-03-19T03:19:02;39.00;;;19.17;;
56242;SDS011;42155;53.096;23.226;2023-03-19T03:21:03;39.03;;;18.63;;
56242;SDS011;42155;53.096;23.226;2023-03-19T03:23:04;36.92;;;18.85;;
56242;SDS011;42155;53.096;23.226;2023-03-19T03:25:05;36.83;;;18.08;;
56242;SDS011;42155;53.096;23.226;2023-03-19T03:27:06;38.80;;;18.77;;
56242;SDS011;42155;53.096;23.226;2023-03-19T03:29:06;37.10;;;18.27;;
56242;SDS011;42155;53.096;23.226;2023-03-19T03:31:07;39.40;;;19.52;;
56242;SDS011;42155;53.096;23.226;2023-03-19T03:33:07;35.90;;;17.58;;
56242;SDS011;42155;53.096;23.226;2023-03-19T03:35:08;40.33;;;19.95;;
56242;SDS011;42155;53.096;23.226;2023-03-19T03:37:08;36.92;;;18.73;;
56242;SDS011;42155;53.096;23.226;2023-03-19T03:39:08;38.05;;;18.98;;
56242;SDS011;42155;53.096;23.226;2023-03-19T03:41:09;37.78;;;19.35;;
56242;SDS011;42155;53.096;23.226;2023-03-19T03:43:09;40.60;;;19.63;;
56242;SDS011;42155;53.096;23.226;2023-03-19T03:45:10;36.90;;;18.63;;
56242;SDS011;42155;53.096;23.226;2023-03-19T03:47:11;37.17;;;18.45;;
56242;SDS011;42155;53.096;23.226;2023-03-19T03:49:11;38.05;;;18.35;;
56242;SDS011;42155;53.096;23.226;2023-03-19T03:51:12;38.38;;;19.90;;
56242;SDS011;42155;53.096;23.226;2023-03-19T03:53:12;39.22;;;18.58;;
56242;SDS011;42155;53.096;23.226;2023-03-19T03:55:13;33.95;;;18.45;;
56242;SDS011;42155;53.096;23.226;2023-03-19T03:57:13;37.83;;;18.65;;
56242;SDS011;42155;53.096;23.226;2023-03-19T03:59:14;40.85;;;19.27;;
56242;SDS011;42155;53.096;23.226;2023-03-19T04:01:14;38.53;;;19.33;;
56242;SDS011;42155;53.096;23.226;2023-03-19T04:03:16;42.95;;;19.50;;
56242;SDS011;42155;53.096;23.226;2023-03-19T04:05:16;38.97;;;18.88;;
56242;SDS011;42155;53.096;23.226;2023-03-19T04:07:16;39.22;;;19.35;;
56242;SDS011;42155;53.096;23.226;2023-03-19T04:09:17;37.58;;;18.40;;
56242;SDS011;42155;53.096;23.226;2023-03-19T04:11:17;34.50;;;18.10;;
56242;SDS011;42155;53.096;23.226;2023-03-19T04:13:18;37.95;;;19.02;;
56242;SDS011;42155;53.096;23.226;2023-03-19T04:15:18;40.83;;;19.55;;
56242;SDS011;42155;53.096;23.226;2023-03-19T04:17:18;42.55;;;19.35;;
56242;SDS011;42155;53.096;23.226;2023-03-19T04:19:19;41.20;;;19.42;;
56242;SDS011;42155;53.096;23.226;2023-03-19T04:21:19;40.25;;;18.95;;
56242;SDS011;42155;53.096;23.226;2023-03-19T04:23:19;41.92;;;20.13;;
56242;SDS011;42155;53.096;23.226;2023-03-19T04:25:20;41.75;;;20.30;;
56242;SDS011;42155;53.096;23.226;2023-03-19T04:27:20;40.38;;;19.52;;
56242;SDS011;42155;53.096;23.226;2023-03-19T04:29:20;40.53;;;20.05;;
56242;SDS011;42155;53.096;23.226;2023-03-19T04:31:21;43.00;;;20.52;;
56242;SDS011;42155;53.096;23.226;2023-03-19T04:33:21;43.10;;;20.23;;
56242;SDS011;42155;53.096;23.226;2023-03-19T04:35:21;46.42;;;21.75;;
56242;SDS011;42155;53.096;23.226;2023-03-19T04:37:22;46.60;;;20.77;;
56242;SDS011;42155;53.096;23.226;2023-03-19T04:39:22;39.85;;;21.08;;
56242;SDS011;42155;53.096;23.226;2023-03-19T04:41:23;41.30;;;19.67;;
56242;SDS011;42155;53.096;23.226;2023-03-19T04:43:23;40.92;;;20.95;;
56242;SDS011;42155;53.096;23.226;2023-03-19T04:45:24;37.67;;;19.05;;
56242;SDS011;42155;53.096;23.226;2023-03-19T04:47:24;46.03;;;21.05;;
56242;SDS011;42155;53.096;23.226;2023-03-19T04:49:25;41.22;;;20.05;;
56242;SDS011;42155;53.096;23.226;2023-03-19T04:51:26;42.83;;;20.13;;
56242;SDS011;42155;53.096;23.226;2023-03-19T04:53:26;44.17;;;20.45;;
56242;SDS011;42155;53.096;23.226;2023-03-19T04:55:27;39.88;;;19.05;;
56242;SDS011;42155;53.096;23.226;2023-03-19T04:57:28;42.42;;;20.88;;
56242;SDS011;42155;53.096;23.226;2023-03-19T04:59:28;47.88;;;21.88;;
56242;SDS011;42155;53.096;23.226;2023-03-19T05:01:28;41.97;;;19.75;;
56242;SDS011;42155;53.096;23.226;2023-03-19T05:03:29;40.13;;;19.25;;
56242;SDS011;42155;53.096;23.226;2023-03-19T05:05:29;41.80;;;20.92;;
56242;SDS011;42155;53.096;23.226;2023-03-19T05:07:30;47.17;;;20.73;;
56242;SDS011;42155;53.096;23.226;2023-03-19T05:09:30;43.15;;;20.27;;
56242;SDS011;42155;53.096;23.226;2023-03-19T05:11:30;44.30;;;21.38;;
56242;SDS011;42155;53.096;23.226;2023-03-19T05:13:31;40.17;;;19.48;;
56242;SDS011;42155;53.096;23.226;2023-03-19T05:15:31;41.90;;;19.83;;
56242;SDS011;42155;53.096;23.226;2023-03-19T05:17:32;39.03;;;20.05;;
56242;SDS011;42155;53.096;23.226;2023-03-19T05:19:32;41.90;;;20.52;;
56242;SDS011;42155;53.096;23.226;2023-03-19T05:21:33;42.05;;;21.48;;
56242;SDS011;42155;53.096;23.226;2023-03-19T05:23:33;41.08;;;19.45;;
56242;SDS011;42155;53.096;23.226;2023-03-19T05:25:33;40.20;;;19.95;;
56242;SDS011;42155;53.096;23.226;2023-03-19T05:27:34;39.30;;;19.63;;
56242;SDS011;42155;53.096;23.226;2023-03-19T05:29:35;34.70;;;18.92;;
56242;SDS011;42155;53.096;23.226;2023-03-19T05:31:36;36.67;;;19.23;;
56242;SDS011;42155;53.096;23.226;2023-03-19T05:33:37;32.20;;;18.33;;
56242;SDS011;42155;53.096;23.226;2023-03-19T05:35:37;35.72;;;19.02;;
56242;SDS011;42155;53.096;23.226;2023-03-19T05:37:38;33.70;;;18.73;;
56242;SDS011;42155;53.096;23.226;2023-03-19T05:39:38;30.80;;;18.58;;
56242;SDS011;42155;53.096;23.226;2023-03-19T05:41:38;30.65;;;18.60;;
56242;SDS011;42155;53.096;23.226;2023-03-19T05:43:39;29.45;;;18.08;;
56242;SDS011;42155;53.096;23.226;2023-03-19T05:45:39;31.08;;;17.92;;
56242;SDS011;42155;53.096;23.226;2023-03-19T05:47:39;30.45;;;18.48;;
56242;SDS011;42155;53.096;23.226;2023-03-19T05:49:40;30.90;;;18.60;;
56242;SDS011;42155;53.096;23.226;2023-03-19T05:51:40;29.60;;;18.95;;
56242;SDS011;42155;53.096;23.226;2023-03-19T05:53:40;30.30;;;18.92;;
56242;SDS011;42155;53.096;23.226;2023-03-19T05:55:41;31.60;;;19.45;;
56242;SDS011;42155;53.096;23.226;2023-03-19T05:57:42;28.63;;;19.02;;
56242;SDS011;42155;53.096;23.226;2023-03-19T05:59:42;30.23;;;18.40;;
56242;SDS011;42155;53.096;23.226;2023-03-19T06:01:43;27.35;;;18.08;;
56242;SDS011;42155;53.096;23.226;2023-03-19T06:03:43;29.70;;;18.90;;
56242;SDS011;42155;53.096;23.226;2023-03-19T06:05:43;29.52;;;19.67;;
56242;SDS011;42155;53.096;23.226;2023-03-19T06:07:44;29.60;;;19.65;;
56242;SDS011;42155;53.096;23.226;2023-03-19T06:09:44;27.30;;;17.45;;
56242;SDS011;42155;53.096;23.226;2023-03-19T06:11:44;27.25;;;19.13;;
56242;SDS011;42155;53.096;23.226;2023-03-19T06:13:45;27.83;;;19.17;;
56242;SDS011;42155;53.096;23.226;2023-03-19T06:15:46;26.83;;;18.63;;
56242;SDS011;42155;53.096;23.226;2023-03-19T06:17:47;28.75;;;19.60;;
56242;SDS011;42155;53.096;23.226;2023-03-19T06:19:47;26.90;;;18.35;;
56242;SDS011;42155;53.096;23.226;2023-03-19T06:21:48;28.92;;;18.40;;
56242;SDS011;42155;53.096;23.226;2023-03-19T06:23:48;29.80;;;19.90;;
56242;SDS011;42155;53.096;23.226;2023-03-19T06:25:48;26.23;;;18.60;;
56242;SDS011;42155;53.096;23.226;2023-03-19T06:27:49;24.20;;;17.85;;
56242;SDS011;42155;53.096;23.226;2023-03-19T06:29:49;28.10;;;19.25;;
56242;SDS011;42155;53.096;23.226;2023-03-19T06:31:49;28.45;;;20.08;;
56242;SDS011;42155;53.096;23.226;2023-03-19T06:33:50;30.13;;;20.33;;
56242;SDS011;42155;53.096;23.226;2023-03-19T06:35:50;26.58;;;19.38;;
56242;SDS011;42155;53.096;23.226;2023-03-19T06:37:50;28.13;;;19.48;;
56242;SDS011;42155;53.096;23.226;2023-03-19T06:39:51;26.98;;;18.45;;
56242;SDS011;42155;53.096;23.226;2023-03-19T06:41:51;29.30;;;18.92;;
56242;SDS011;42155;53.096;23.226;2023-03-19T06:43:51;26.33;;;18.92;;
56242;SDS011;42155;53.096;23.226;2023-03-19T06:45:52;25.55;;;19.30;;
56242;SDS011;42155;53.096;23.226;2023-03-19T06:47:52;29.10;;;19.30;;
56242;SDS011;42155;53.096;23.226;2023-03-19T06:49:53;28.95;;;18.38;;
56242;SDS011;42155;53.096;23.226;2023-03-19T06:51:53;27.42;;;18.50;;
56242;SDS011;42155;53.096;23.226;2023-03-19T06:53:53;29.38;;;19.17;;
56242;SDS011;42155;53.096;23.226;2023-03-19T06:55:53;26.63;;;17.65;;
56242;SDS011;42155;53.096;23.226;2023-03-19T06:57:54;27.90;;;19.33;;
56242;SDS011;42155;53.096;23.226;2023-03-19T06:59:54;31.35;;;20.08;;
56242;SDS011;42155;53.096;23.226;2023-03-19T07:01:55;29.90;;;19.27;;
56242;SDS011;42155;53.096;23.226;2023-03-19T07:03:55;30.05;;;18.92;;
56242;SDS011;42155;53.096;23.226;2023-03-19T07:05:55;28.23;;;17.30;;
56242;SDS011;42155;53.096;23.226;2023-03-19T07:07:56;26.90;;;18.00;;
56242;SDS011;42155;53.096;23.226;2023-03-19T07:09:56;29.20;;;17.70;;
56242;SDS011;42155;53.096;23.226;2023-03-19T07:11:57;29.08;;;17.70;;
56242;SDS011;42155;53.096;23.226;2023-03-19T07:13:57;28.27;;;16.95;;
56242;SDS011;42155;53.096;23.226;2023-03-19T07:15:57;31.73;;;17.73;;
56242;SDS011;42155;53.096;23.226;2023-03-19T07:17:59;31.25;;;16.50;;
56242;SDS011;42155;53.096;23.226;2023-03-19T07:19:59;34.45;;;18.40;;
56242;SDS011;42155;53.096;23.226;2023-03-19T07:21:59;31.80;;;18.50;;
56242;SDS011;42155;53.096;23.226;2023-03-19T07:24:00;33.03;;;18.33;;
56242;SDS011;42155;53.096;23.226;2023-03-19T07:26:00;33.83;;;19.30;;
56242;SDS011;42155;53.096;23.226;2023-03-19T07:28:00;33.30;;;18.40;;
56242;SDS011;42155;53.096;23.226;2023-03-19T07:30:01;30.73;;;17.75;;
56242;SDS011;42155;53.096;23.226;2023-03-19T07:32:01;30.88;;;17.35;;
56242;SDS011;42155;53.096;23.226;2023-03-19T07:34:02;32.10;;;16.90;;
56242;SDS011;42155;53.096;23.226;2023-03-19T07:36:02;28.80;;;16.65;;
56242;SDS011;42155;53.096;23.226;2023-03-19T07:38:03;28.40;;;17.40;;
56242;SDS011;42155;53.096;23.226;2023-03-19T07:40:03;27.83;;;16.17;;
56242;SDS011;42155;53.096;23.226;2023-03-19T07:42:04;29.10;;;15.90;;
56242;SDS011;42155;53.096;23.226;2023-03-19T07:44:04;28.98;;;17.05;;
56242;SDS011;42155;53.096;23.226;2023-03-19T07:46:05;30.67;;;16.42;;
56242;SDS011;42155;53.096;23.226;2023-03-19T07:48:05;27.50;;;15.95;;
56242;SDS011;42155;53.096;23.226;2023-03-19T07:50:06;29.23;;;16.23;;
56242;SDS011;42155;53.096;23.226;2023-03-19T07:52:07;32.28;;;17.05;;
56242;SDS011;42155;53.096;23.226;2023-03-19T07:54:08;31.75;;;16.23;;
56242;SDS011;42155;53.096;23.226;2023-03-19T07:56:08;29.25;;;16.13;;
56242;SDS011;42155;53.096;23.226;2023-03-19T07:58:08;27.52;;;15.63;;
56242;SDS011;42155;53.096;23.226;2023-03-19T08:00:09;29.83;;;16.48;;
56242;SDS011;42155;53.096;23.226;2023-03-19T08:02:10;29.67;;;16.13;;
56242;SDS011;42155;53.096;23.226;2023-03-19T08:04:11;26.88;;;15.52;;
56242;SDS011;42155;53.096;23.226;2023-03-19T08:06:11;34.10;;;17.38;;
56242;SDS011;42155;53.096;23.226;2023-03-19T08:08:12;31.40;;;16.60;;
56242;SDS011;42155;53.096;23.226;2023-03-19T08:10:12;30.08;;;16.13;;
56242;SDS011;42155;53.096;23.226;2023-03-19T08:12:13;29.20;;;16.50;;
56242;SDS011;42155;53.096;23.226;2023-03-19T08:14:13;30.00;;;15.90;;
56242;SDS011;42155;53.096;23.226;2023-03-19T08:16:13;25.65;;;15.13;;
56242;SDS011;42155;53.096;23.226;2023-03-19T08:18:14;30.73;;;16.20;;
56242;SDS011;42155;53.096;23.226;2023-03-19T08:20:14;27.50;;;15.20;;
56242;SDS011;42155;53.096;23.226;2023-03-19T08:22:15;32.53;;;16.60;;
56242;SDS011;42155;53.096;23.226;2023-03-19T08:24:16;24.63;;;14.60;;
56242;SDS011;42155;53.096;23.226;2023-03-19T08:26:16;26.92;;;14.85;;
56242;SDS011;42155;53.096;23.226;2023-03-19T08:28:17;25.23;;;14.35;;
56242;SDS011;42155;53.096;23.226;2023-03-19T08:30:17;27.55;;;14.98;;
56242;SDS011;42155;53.096;23.226;2023-03-19T08:32:17;29.70;;;16.52;;
56242;SDS011;42155;53.096;23.226;2023-03-19T08:34:18;27.20;;;15.68;;
56242;SDS011;42155;53.096;23.226;2023-03-19T08:36:18;28.65;;;15.43;;
56242;SDS011;42155;53.096;23.226;2023-03-19T08:38:19;26.02;;;15.30;;
56242;SDS011;42155;53.096;23.226;2023-03-19T08:40:19;26.55;;;14.48;;
56242;SDS011;42155;53.096;23.226;2023-03-19T08:42:19;28.52;;;15.32;;
56242;SDS011;42155;53.096;23.226;2023-03-19T08:44:20;27.35;;;15.38;;
56242;SDS011;42155;53.096;23.226;2023-03-19T08:46:21;26.58;;;15.05;;
56242;SDS011;42155;53.096;23.226;2023-03-19T08:48:21;28.10;;;14.95;;
56242;SDS011;42155;53.096;23.226;2023-03-19T08:50:21;25.80;;;14.98;;
56242;SDS011;42155;53.096;23.226;2023-03-19T08:52:22;26.80;;;15.23;;
56242;SDS011;42155;53.096;23.226;2023-03-19T08:54:22;29.60;;;15.55;;
56242;SDS011;42155;53.096;23.226;2023-03-19T08:56:23;25.60;;;14.35;;
56242;SDS011;42155;53.096;23.226;2023-03-19T08:58:24;25.80;;;14.13;;
56242;SDS011;42155;53.096;23.226;2023-03-19T09:00:24;29.30;;;15.15;;
56242;SDS011;42155;53.096;23.226;2023-03-19T09:02:24;24.95;;;13.93;;
56242;SDS011;42155;53.096;23.226;2023-03-19T09:04:25;25.25;;;14.48;;
56242;SDS011;42155;53.096;23.226;2023-03-19T09:06:25;25.77;;;14.32;;
56242;SDS011;42155;53.096;23.226;2023-03-19T09:08:26;26.42;;;14.05;;
56242;SDS011;42155;53.096;23.226;2023-03-19T09:10:27;25.25;;;14.15;;
56242;SDS011;42155;53.096;23.226;2023-03-19T09:12:27;24.98;;;14.43;;
56242;SDS011;42155;53.096;23.226;2023-03-19T09:14:28;24.35;;;14.15;;
56242;SDS011;42155;53.096;23.226;2023-03-19T09:16:28;23.73;;;14.55;;
56242;SDS011;42155;53.096;23.226;2023-03-19T09:18:29;22.17;;;13.23;;
56242;SDS011;42155;53.096;23.226;2023-03-19T09:20:29;25.17;;;13.20;;
56242;SDS011;42155;53.096;23.226;2023-03-19T09:22:29;24.33;;;13.40;;
56242;SDS011;42155;53.096;23.226;2023-03-19T09:24:30;22.85;;;12.50;;
56242;SDS011;42155;53.096;23.226;2023-03-19T09:26:30;23.38;;;12.48;;
56242;SDS011;42155;53.096;23.226;2023-03-19T09:28:30;22.60;;;13.18;;
56242;SDS011;42155;53.096;23.226;2023-03-19T09:30:31;23.60;;;13.50;;
56242;SDS011;42155;53.096;23.226;2023-03-19T09:32:31;22.67;;;12.38;;
56242;SDS011;42155;53.096;23.226;2023-03-19T09:34:32;22.10;;;13.25;;
56242;SDS011;42155;53.096;23.226;2023-03-19T09:36:32;26.30;;;12.90;;
56242;SDS011;42155;53.096;23.226;2023-03-19T09:38:32;23.85;;;13.65;;
56242;SDS011;42155;53.096;23.226;2023-03-19T09:40:42;23.33;;;12.15;;
56242;SDS011;42155;53.096;23.226;2023-03-19T09:44:59;21.67;;;12.30;;
56242;SDS011;42155;53.096;23.226;2023-03-19T09:49:23;24.23;;;13.20;;
56242;SDS011;42155;53.096;23.226;2023-03-19T09:51:47;23.25;;;13.10;;
56242;SDS011;42155;53.096;23.226;2023-03-19T09:56:23;19.88;;;11.02;;
56242;SDS011;42155;53.096;23.226;2023-03-19T09:58:26;20.02;;;11.07;;
56242;SDS011;42155;53.096;23.226;2023-03-19T10:00:31;19.30;;;10.05;;
56242;SDS011;42155;53.096;23.226;2023-03-19T10:02:41;21.48;;;10.35;;
56242;SDS011;42155;53.096;23.226;2023-03-19T10:04:43;18.90;;;10.05;;
56242;SDS011;42155;53.096;23.226;2023-03-19T10:07:04;20.15;;;10.32;;
56242;SDS011;42155;53.096;23.226;2023-03-19T10:11:44;18.17;;;10.57;;
56242;SDS011;42155;53.096;23.226;2023-03-19T10:14:07;21.25;;;10.85;;
56242;SDS011;42155;53.096;23.226;2023-03-19T10:16:28;16.95;;;10.25;;
56242;SDS011;42155;53.096;23.226;2023-03-19T10:18:35;17.50;;;10.15;;
56242;SDS011;42155;53.096;23.226;2023-03-19T10:20:44;15.35;;;9.40;;
56242;SDS011;42155;53.096;23.226;2023-03-19T10:22:47;18.40;;;10.50;;
56242;SDS011;42155;53.096;23.226;2023-03-19T10:24:51;21.10;;;10.63;;
56242;SDS011;42155;53.096;23.226;2023-03-19T10:27:16;15.98;;;10.10;;
56242;SDS011;42155;53.096;23.226;2023-03-19T10:29:19;18.25;;;9.98;;
56242;SDS011;42155;53.096;23.226;2023-03-19T10:31:26;18.63;;;9.63;;
56242;SDS011;42155;53.096;23.226;2023-03-19T10:33:31;16.58;;;9.75;;
56242;SDS011;42155;53.096;23.226;2023-03-19T10:35:44;17.65;;;9.73;;
56242;SDS011;42155;53.096;23.226;2023-03-19T10:37:48;20.30;;;10.93;;
56242;SDS011;42155;53.096;23.226;2023-03-19T10:39:49;17.88;;;10.50;;
56242;SDS011;42155;53.096;23.226;2023-03-19T10:44:35;20.77;;;10.93;;
56242;SDS011;42155;53.096;23.226;2023-03-19T10:46:38;17.55;;;9.82;;
56242;SDS011;42155;53.096;23.226;2023-03-19T10:48:42;18.17;;;10.75;;
56242;SDS011;42155;53.096;23.226;2023-03-19T10:52:52;20.52;;;11.60;;
56242;SDS011;42155;53.096;23.226;2023-03-19T10:55:25;19.42;;;10.88;;
56242;SDS011;42155;53.096;23.226;2023-03-19T10:57:28;17.45;;;9.88;;
56242;SDS011;42155;53.096;23.226;2023-03-19T11:01:34;18.00;;;9.55;;
56242;SDS011;42155;53.096;23.226;2023-03-19T11:03:48;17.85;;;9.60;;
56242;SDS011;42155;53.096;23.226;2023-03-19T11:05:51;27.58;;;13.13;;
56242;SDS011;42155;53.096;23.226;2023-03-19T11:08:11;26.48;;;13.60;;
56242;SDS011;42155;53.096;23.226;2023-03-19T11:10:20;16.15;;;9.40;;
56242;SDS011;42155;53.096;23.226;2023-03-19T11:12:27;17.23;;;9.75;;
56242;SDS011;42155;53.096;23.226;2023-03-19T11:14:37;17.73;;;8.98;;
56242;SDS011;42155;53.096;23.226;2023-03-19T11:16:45;16.77;;;9.07;;
56242;SDS011;42155;53.096;23.226;2023-03-19T11:18:47;23.65;;;11.35;;
56242;SDS011;42155;53.096;23.226;2023-03-19T11:20:57;19.33;;;10.35;;
56242;SDS011;42155;53.096;23.226;2023-03-19T11:22:59;22.08;;;11.43;;
56242;SDS011;42155;53.096;23.226;2023-03-19T11:27:32;18.73;;;10.65;;
56242;SDS011;42155;53.096;23.226;2023-03-19T11:29:36;16.30;;;9.38;;
56242;SDS011;42155;53.096;23.226;2023-03-19T11:31:51;19.02;;;9.52;;
56242;SDS011;42155;53.096;23.226;2023-03-19T11:36:55;17.88;;;9.35;;
56242;SDS011;42155;53.096;23.226;2023-03-19T11:44:01;16.98;;;9.02;;
56242;SDS011;42155;53.096;23.226;2023-03-19T11:46:15;15.57;;;8.50;;
56242;SDS011;42155;53.096;23.226;2023-03-19T11:53:17;18.73;;;9.40;;
56242;SDS011;42155;53.096;23.226;2023-03-19T12:09:34;14.80;;;8.40;;
56242;SDS011;42155;53.096;23.226;2023-03-19T12:11:51;13.95;;;7.70;;
56242;SDS011;42155;53.096;23.226;2023-03-19T12:14:00;24.65;;;8.07;;
56242;SDS011;42155;53.096;23.226;2023-03-19T12:20:51;13.23;;;8.45;;
56242;SDS011;42155;53.096;23.226;2023-03-19T12:23:23;14.48;;;8.35;;
56242;SDS011;42155;53.096;23.226;2023-03-19T12:35:00;14.85;;;8.13;;
56242;SDS011;42155;53.096;23.226;2023-03-19T12:39:18;14.57;;;8.02;;
56242;SDS011;42155;53.096;23.226;2023-03-19T12:41:23;13.88;;;8.10;;
56242;SDS011;42155;53.096;23.226;2023-03-19T12:45:50;14.68;;;7.63;;
56242;SDS011;42155;53.096;23.226;2023-03-19T12:48:01;13.70;;;7.47;;
56242;SDS011;42155;53.096;23.226;2023-03-19T12:50:23;14.45;;;8.45;;
56242;SDS011;42155;53.096;23.226;2023-03-19T12:52:27;15.23;;;7.75;;
56242;SDS011;42155;53.096;23.226;2023-03-19T12:54:38;14.52;;;8.45;;